Latest Weather Observations for Hindmarsh Island

IDS60801

Issued at 1:32 pm CST Saturday 25 April 2015 (issued every 30 minutes, with the page automatically refreshed every 10 minutes)

About weather observations | Map of weather stations | Latest weather observations for SA | Other Formats
Station Details ID: 023894 Name: HINDMARSH ISLAND AWS Lat: -35.52 Lon: 138.82 Height: 11.0 m
Data from the previous 72 hours. | See also: Recent months at Hindmarsh Island
Date/Time
CST
Temp
°C
App
Temp
°C
Dew
Point
Rel
Hum
%
Delta-T
°C
Wind Press
QNH
hPa
Press
MSL
hPa
Rain
since 9 am
mm
Dir
 
Spd
km/h
Gust
km/h
Spd
kts
Gust
kts
25/01:30pm 14.9 10.3 12.2 84 1.5 S 28 33 15 18 1013.8 - 0.6
25/01:00pm 16.2 12.4 13.7 85 1.4 SW 26 33 14 18 1013.8 - 0.4
25/12:30pm 14.7 10.1 12.2 85 1.4 SW 28 35 15 19 1013.8 - 0.4
25/12:00pm 13.9 7.3 11.4 85 1.3 SSW 37 44 20 24 1013.8 1013.7 0.4
25/11:34am 14.4 7.4 10.0 75 2.3 SW 37 56 20 30 1013.6 - 0.0
25/11:30am 15.0 8.1 8.7 66 3.2 SW 35 44 19 24 1013.6 - 0.0
25/11:00am 15.8 9.3 9.0 64 3.5 SW 33 43 18 23 1013.4 - 0.0
25/10:30am 15.8 12.1 10.3 70 2.9 SW 20 26 11 14 1013.3 - 0.0
25/10:00am 14.7 9.6 9.1 69 2.9 SSW 26 35 14 19 1013.1 - 0.0
25/09:30am 14.2 8.6 8.8 70 2.7 S 28 33 15 18 1012.6 - 0.0
25/09:00am 14.3 8.7 8.9 70 2.7 S 28 33 15 18 1012.4 1012.4 18.4
25/08:30am 14.5 9.0 9.1 70 2.8 S 28 33 15 18 1012.0 - 18.4
25/08:00am 13.6 7.7 9.1 74 2.3 S 30 37 16 20 1011.3 - 18.4
25/07:30am 13.1 6.7 8.4 73 2.3 S 32 37 17 20 1010.7 - 18.4
25/07:00am 12.7 6.2 8.2 74 2.2 SSE 32 37 17 20 1009.9 - 18.4
25/06:30am 12.4 6.4 8.5 77 1.9 SSE 30 37 16 20 1009.5 - 18.4
25/06:00am 11.9 5.5 8.4 79 1.7 SSE 32 39 17 21 1009.0 1008.8 18.4
25/05:30am 11.5 4.8 8.0 79 1.7 SSE 33 41 18 22 1008.5 - 18.4
25/05:00am 11.4 5.0 8.6 83 1.4 SSE 32 39 17 21 1007.8 - 18.4
25/04:30am 11.2 3.7 7.9 80 1.6 SSE 37 46 20 25 1006.9 - 18.4
25/04:00am 10.3 5.8 8.6 89 0.8 ESE 22 28 12 15 1006.3 - 18.4
25/03:30am 10.3 5.4 8.4 88 0.9 ESE 24 28 13 15 1005.5 - 18.2
25/03:00am 10.2 6.0 8.3 88 0.9 ESE 20 24 11 13 1004.7 1004.6 18.2
25/02:30am 9.9 7.0 8.2 89 0.8 SSE 13 17 7 9 1004.3 - 18.2
25/02:00am 9.4 6.8 7.7 89 0.8 ESE 11 15 6 8 1003.6 - 18.2
25/01:30am 9.4 6.0 7.5 88 0.9 ENE 15 22 8 12 1003.0 - 18.2
25/01:00am 9.7 5.1 8.0 89 0.8 NE 22 28 12 15 1002.6 - 17.8
25/12:30am 9.6 5.5 7.9 89 0.8 NE 19 26 10 14 1002.4 - 17.2
25/12:00am 9.2 5.3 7.3 88 0.9 NE 17 20 9 11 1002.5 1002.4 15.4
 
Date/Time
CST
Temp
°C
App
Temp
°C
Dew
Point
Rel
Hum
%
Delta-T
°C
Wind Press
QNH
hPa
Press
MSL
hPa
Rain
since 9 am
mm
Dir
 
Spd
km/h
Gust
km/h
Spd
kts
Gust
kts
24/11:30pm 10.0 8.9 6.9 81 1.5 NW 2 13 1 7 1002.3 - 14.4
24/11:00pm 9.8 4.3 7.6 86 1.1 S 26 39 14 21 1002.5 - 13.2
24/10:30pm 9.6 3.7 7.5 87 1.0 NE 28 33 15 18 1002.1 - 8.0
24/10:00pm 9.7 5.0 7.6 87 1.0 NE 22 30 12 16 1002.7 - 7.8
24/09:30pm 9.9 4.0 7.7 86 1.1 NE 28 35 15 19 1003.2 - 7.8
24/09:00pm 9.6 5.0 6.7 82 1.4 N 20 32 11 17 1003.9 1003.9 7.6
24/08:30pm 10.2 5.7 6.9 80 1.6 NNW 20 32 11 17 1004.9 - 6.0
24/08:00pm 10.1 6.0 6.4 78 1.7 N 17 22 9 12 1004.6 - 2.6
24/07:30pm 10.7 7.1 6.6 76 1.9 N 15 22 8 12 1005.0 - 2.6
24/07:00pm 11.0 8.3 7.3 78 1.8 N 11 15 6 8 1005.8 - 2.4
24/06:30pm 9.8 7.2 6.2 78 1.7 NNE 9 11 5 6 1005.6 - 2.4
24/06:00pm 10.8 8.6 6.2 73 2.2 N 7 9 4 5 1005.9 1005.8 2.4
24/05:30pm 12.9 8.4 6.3 64 3.1 NW 19 32 10 17 1006.3 - 2.4
24/05:00pm 14.1 9.4 6.2 59 3.8 WNW 20 32 11 17 1005.9 - 2.4
24/04:30pm 14.5 8.0 6.6 59 3.8 WNW 30 43 16 23 1005.6 - 2.4
24/04:00pm 15.8 9.0 5.1 49 5.1 W 30 44 16 24 1005.6 - 2.4
24/03:30pm 16.1 10.1 5.4 49 5.1 W 26 37 14 20 1005.5 - 2.4
24/03:00pm 16.0 8.2 5.0 48 5.2 W 35 46 19 25 1005.6 1005.5 2.4
24/02:30pm 16.3 9.3 6.2 51 4.9 W 32 43 17 23 1005.5 - 2.4
24/02:21pm 16.2 9.5 5.8 50 5.0 W 30 43 16 23 1005.5 - 2.4
24/02:04pm 15.5 8.0 8.0 61 3.8 SW 37 44 20 24 1005.5 - 2.4
24/02:00pm 16.3 10.1 7.8 57 4.3 W 30 41 16 22 1005.6 - 2.4
24/01:31pm 16.5 10.7 8.0 57 4.3 W 28 46 15 25 1005.4 - 2.4
24/01:30pm 16.6 11.3 8.3 58 4.2 W 26 39 14 21 1005.4 - 2.4
24/01:00pm 15.0 8.5 8.3 64 3.4 W 32 43 17 23 1006.0 - 2.4
24/12:30pm 13.8 8.9 8.6 71 2.6 W 24 30 13 16 1006.4 - 2.2
24/12:00pm 13.8 9.0 9.0 73 2.4 W 24 33 13 18 1006.7 1006.6 2.2
24/11:30am 12.8 8.6 8.3 74 2.2 W 20 32 11 17 1007.1 - 2.2
24/11:00am 12.9 5.1 8.2 73 2.3 W 39 54 21 29 1007.2 - 2.2
24/10:40am 13.4 5.9 9.3 76 2.1 WSW 39 57 21 31 1006.9 - 2.2
24/10:30am 13.5 5.6 9.4 76 2.1 WSW 41 56 22 30 1006.6 - 2.2
24/10:12am 13.0 4.7 10.2 83 1.4 SW 44 67 24 36 1006.4 - 2.2
24/10:08am 13.7 6.0 10.1 79 1.9 W 41 67 22 36 1006.1 - 2.2
24/10:00am 15.0 13.8 12.7 86 1.3 NNW 11 17 6 9 1005.9 - 2.2
24/09:30am 14.2 12.0 12.1 87 1.1 NNW 15 24 8 13 1006.3 - 2.2
24/09:00am 14.8 10.8 11.9 83 1.6 NNW 24 32 13 17 1006.5 1006.4 0.2
24/08:30am 16.4 12.0 11.8 74 2.5 NW 26 39 14 21 1006.4 - 0.0
24/08:00am 14.7 12.4 11.8 83 1.6 N 15 19 8 10 1006.5 - 0.0
24/07:30am 14.7 12.4 11.7 82 1.6 N 15 20 8 11 1006.4 - 0.0
24/07:00am 13.7 11.6 11.0 84 1.4 N 13 15 7 8 1006.7 - 0.0
24/06:30am 13.7 11.9 10.7 82 1.6 N 11 13 6 7 1007.1 - 0.0
24/06:00am 13.8 11.6 10.8 82 1.6 NW 13 15 7 8 1007.5 1007.4 0.0
24/05:30am 13.8 12.3 10.6 81 1.7 NW 9 13 5 7 1007.4 - 0.0
24/05:00am 14.0 11.8 10.8 81 1.7 WNW 13 17 7 9 1007.7 - 0.0
24/04:30am 14.1 12.8 11.3 83 1.5 WNW 9 13 5 7 1007.6 - 0.0
24/04:00am 14.1 12.0 11.3 83 1.5 WNW 13 17 7 9 1008.1 - 0.0
24/03:30am 14.1 12.2 11.8 86 1.2 WNW 13 19 7 10 1008.6 - 0.0
24/03:00am 13.2 12.3 10.7 85 1.3 W 6 7 3 4 1008.9 1008.8 0.0
24/02:30am 13.2 12.0 10.4 83 1.5 WNW 7 9 4 5 1009.3 - 0.0
24/02:00am 13.2 11.7 10.6 84 1.4 NNW 9 11 5 6 1009.6 - 0.0
24/01:30am 13.0 11.4 10.2 83 1.4 N 9 11 5 6 1009.8 - 0.0
24/01:00am 12.8 11.2 10.2 84 1.3 N 9 11 5 6 1010.4 - 0.0
24/12:30am 12.7 11.1 10.2 85 1.3 N 9 11 5 6 1010.7 - 0.0
24/12:00am 12.7 11.1 10.1 84 1.3 NNW 9 9 5 5 1011.0 1010.9 0.0
 
Date/Time
CST
Temp
°C
App
Temp
°C
Dew
Point
Rel
Hum
%
Delta-T
°C
Wind Press
QNH
hPa
Press
MSL
hPa
Rain
since 9 am
mm
Dir
 
Spd
km/h
Gust
km/h
Spd
kts
Gust
kts
23/11:30pm 13.1 11.8 9.9 81 1.6 NW 7 7 4 4 1011.3 - 0.0
23/11:00pm 12.6 10.9 9.8 83 1.4 NW 9 9 5 5 1011.9 - 0.0
23/10:30pm 12.9 11.3 10.3 84 1.3 NNW 9 9 5 5 1012.3 - 0.0
23/10:00pm 13.3 11.8 10.7 84 1.4 NW 9 11 5 6 1012.7 - 0.0
23/09:30pm 13.8 12.8 11.1 84 1.4 WNW 7 9 4 5 1012.9 - 0.0
23/09:00pm 14.2 12.9 11.4 83 1.5 SW 9 11 5 6 1013.0 1012.9 0.0
23/08:30pm 14.2 12.9 11.4 83 1.5 SSW 9 11 5 6 1013.2 - 0.0
23/08:00pm 14.4 13.1 11.4 82 1.6 WSW 9 11 5 6 1013.4 - 0.0
23/07:30pm 14.8 12.5 11.6 81 1.7 SSW 15 17 8 9 1013.6 - 0.0
23/07:00pm 14.9 13.0 11.7 81 1.7 SW 13 15 7 8 1013.8 - 0.0
23/06:30pm 14.8 13.2 11.6 81 1.7 SW 11 13 6 7 1014.2 - 0.0
23/06:00pm 14.9 13.3 11.7 81 1.7 SSW 11 13 6 7 1013.9 1013.8 0.0
23/05:30pm 14.9 14.0 11.3 79 1.9 SSW 7 9 4 5 1014.0 - 0.0
23/05:00pm 15.0 13.8 11.6 80 1.8 SSW 9 11 5 6 1014.0 - 0.0
23/04:30pm 15.2 13.9 11.4 78 2.0 SW 9 13 5 7 1014.1 - 0.0
23/04:00pm 15.9 14.8 11.9 77 2.2 SW 9 11 5 6 1014.3 - 0.0
23/03:30pm 16.2 14.5 11.2 72 2.7 SW 11 17 6 9 1014.5 - 0.0
23/03:00pm 16.9 15.5 12.2 74 2.6 S 11 15 6 8 1014.4 1014.3 0.0
23/02:30pm 16.3 15.1 11.7 74 2.5 S 9 13 5 7 1014.7 - 0.0
23/02:00pm 15.8 14.3 11.8 77 2.2 S 11 13 6 7 1015.0 - 0.0
23/01:30pm 15.7 13.6 12.3 80 1.9 SSW 15 20 8 11 1015.2 - 0.0
23/01:00pm 15.2 14.1 12.0 81 1.7 S 9 13 5 7 1015.4 - 0.0
23/12:30pm 15.3 14.2 11.9 80 1.8 SW 9 11 5 6 1016.6 - 0.0
23/12:00pm 15.4 13.9 11.8 79 1.9 SW 11 15 6 8 1017.4 1017.3 0.0
23/11:30am 15.4 14.6 11.8 79 1.9 SW 7 11 4 6 1017.9 - 0.0
23/11:00am 15.1 14.9 11.7 80 1.8 SSE 4 7 2 4 1018.4 - 0.0
23/10:30am 15.4 15.3 12.0 80 1.8 WNW 4 7 2 4 1018.8 - 0.0
23/10:00am 15.1 14.4 11.5 79 1.9 S 6 7 3 4 1018.8 - 0.0
23/09:30am 13.8 13.0 11.0 83 1.5 NNE 6 7 3 4 1019.1 - 0.0
23/09:00am 13.7 13.0 11.4 86 1.2 NNE 6 7 3 4 1019.6 1019.5 0.0
23/08:30am 12.9 11.5 10.8 87 1.1 ENE 9 11 5 6 1019.7 - 0.0
23/08:00am 11.9 10.3 10.3 90 0.8 NE 9 11 5 6 1019.6 - 0.0
23/07:30am 10.6 8.3 8.9 89 0.8 ENE 11 11 6 6 1019.6 - 0.0
23/07:00am 10.5 8.2 8.9 90 0.8 E 11 13 6 7 1019.4 - 0.0
23/06:30am 10.4 7.3 8.8 90 0.8 E 15 15 8 8 1019.4 - 0.0
23/06:00am 10.6 7.9 8.9 89 0.8 E 13 13 7 7 1019.4 1019.3 0.0
23/05:30am 11.4 9.3 9.7 89 0.9 E 11 13 6 7 1019.5 - 0.0
23/05:00am 11.4 9.7 9.7 89 0.9 E 9 11 5 6 1019.4 - 0.0
23/04:30am 11.8 9.7 9.7 87 1.1 ESE 11 11 6 6 1019.3 - 0.0
23/04:00am 13.1 11.6 10.6 85 1.3 ESE 9 11 5 6 1019.4 - 0.0
23/03:30am 13.5 12.6 11.2 86 1.2 ESE 7 7 4 4 1019.6 - 0.0
23/03:00am 13.2 12.7 10.7 85 1.3 ESE 4 6 2 3 1019.8 1019.7 0.0
23/02:30am 13.6 12.6 10.9 84 1.4 ESE 7 9 4 5 1020.2 - 0.0
23/02:00am 14.1 12.5 11.4 84 1.4 SE 11 15 6 8 1020.7 - 0.0
23/01:30am 14.6 12.7 11.7 83 1.6 SSE 13 17 7 9 1021.0 - 0.0
23/01:00am 14.9 12.6 11.9 82 1.6 SSE 15 19 8 10 1021.2 - 0.0
23/12:30am 15.1 12.1 12.1 82 1.6 SSE 19 22 10 12 1021.3 - 0.0
23/12:00am 15.2 12.2 12.1 82 1.7 SSE 19 22 10 12 1021.4 1021.3 0.0
 
Date/Time
CST
Temp
°C
App
Temp
°C
Dew
Point
Rel
Hum
%
Delta-T
°C
Wind Press
QNH
hPa
Press
MSL
hPa
Rain
since 9 am
mm
Dir
 
Spd
km/h
Gust
km/h
Spd
kts
Gust
kts
22/11:30pm 15.2 12.1 12.1 82 1.7 SSE 20 24 11 13 1021.8 - 0.0
22/11:00pm 15.3 11.4 12.1 81 1.7 SSE 24 30 13 16 1022.1 - 0.0
22/10:30pm 15.4 10.8 12.2 81 1.7 SSE 28 32 15 17 1022.4 - 0.0
22/10:00pm 15.2 10.5 12.0 81 1.7 SSE 28 33 15 18 1022.6 - 0.0
22/09:30pm 15.3 11.0 12.1 81 1.7 S 26 30 14 16 1022.9 - 0.0
22/09:00pm 15.2 10.8 11.8 80 1.8 SSE 26 32 14 17 1022.9 1022.8 0.0
22/08:30pm 15.2 10.4 11.6 79 1.9 SSE 28 35 15 19 1022.9 - 0.0
22/08:00pm 15.2 9.9 11.4 78 2.0 S 30 35 16 19 1023.2 - 0.0
22/07:30pm 15.2 9.9 11.4 78 2.0 S 30 35 16 19 1022.8 - 0.0
22/07:00pm 15.1 9.8 11.1 77 2.1 S 30 37 16 20 1023.0 - 0.0
22/06:30pm 15.1 9.3 10.7 75 2.3 S 32 37 17 20 1023.0 - 0.0
22/06:00pm 15.3 10.4 11.3 77 2.1 S 28 33 15 18 1023.1 1023.1 0.0
22/05:30pm 15.3 9.8 10.7 74 2.4 S 30 35 16 19 1023.2 - 0.0
22/05:00pm 15.3 10.6 10.7 74 2.4 S 26 32 14 17 1023.0 - 0.0
22/04:30pm 15.4 10.7 10.6 73 2.5 S 26 30 14 16 1023.1 - 0.0
22/04:00pm 15.8 10.8 11.0 73 2.6 S 28 32 15 17 1023.2 - 0.0
22/03:30pm 16.4 12.1 10.7 69 3.0 S 24 30 13 16 1023.5 - 0.0
22/03:00pm 16.0 11.9 10.1 68 3.1 S 22 28 12 15 1023.7 1023.6 0.0
22/02:30pm 15.4 11.7 10.2 71 2.7 S 20 26 11 14 1023.8 - 0.0
22/02:00pm 15.2 11.4 9.8 70 2.8 S 20 28 11 15 1023.9 - 0.0

Other Formats:

Comma delimited format used in spreadsheet applications
http://www.bom.gov.au/fwo/IDS60801/IDS60801.94677.axf

JavaScript Object Notation format (JSON) in row-major order
http://www.bom.gov.au/fwo/IDS60801/IDS60801.94677.json